SAZR/RSA METAR and TAF weather

Enter ICAO airport designator
Station Type Date Time Source
SAZR METAR 2020/01/21 09:10 UTC NOAA

SAZR 210910Z 16006KT 9000 NSC 20/20 Q1013


Station Type Date Time Source
SAZR Decoded METAR 2020/01/21 09:10 UTC NOAA

Santa Rosa Aerodrome, Argentina (SAZR) 36-34S 064-16W 191M
Jan 21, 2020 - 04:10 AM EST / 2020.01.21 0910 UTC
Wind: from the SSE (160 degrees) at 7 MPH (6 KT):0
Visibility: 5 mile(s):0
Temperature: 68 F (20 C)
Dew Point: 68 F (20 C)
Relative Humidity: 100%
Pressure (altimeter): 29.91 in. Hg (1013 hPa)
ob: SAZR 210910Z 16006KT 9000 NSC 20/20 Q1013
cycle: 9

Station Type Date Time Source
SAZR TAF 2020/01/14 00:54 UTC NOAA

TAF SAZR 142300Z 1500/1524 32005KT 9999 FEW030 TX287/1518Z TN16/1510Z
BECMG 1500/1502 20015KT CAVOK
BECMG 150/1510 19015G25KT

Example: see airport list